Terminal Aerodrome Forecast
Issued by NWS

Home | Current Version | Previous Version | Text Only | Print | Product List | Glossary On
Versions: 1 2 3 4 5 6 7 8 9 10 11 12
000
FTUS45 KRIW 281700
TAFJAC
TAF
KJAC 281720Z 2818/2918 19011KT 2SM -SN OVC018
     FM282100 19009KT 4SM -SN SCT010 OVC020
     FM290200 VRB05KT 5SM -SN SCT015 OVC025
     FM290700 01005KT P6SM -SN OVC015
      AMD LTD TO CLD VIS AND WIND=

USA.gov is the U.S. government's official web portal to all federal, state and local government web resources and services.